sensor_id;sensor_type;location;lat;lon;timestamp;temperature;humidity
22813;DHT22;11573;51.334;3.244;2023-06-24T00:00:34;17.50;99.90
22813;DHT22;11573;51.334;3.244;2023-06-24T00:03:01;17.60;99.90
22813;DHT22;11573;51.334;3.244;2023-06-24T00:05:28;17.50;99.90
22813;DHT22;11573;51.334;3.244;2023-06-24T00:07:55;17.40;99.90
22813;DHT22;11573;51.334;3.244;2023-06-24T00:10:23;17.40;99.90
22813;DHT22;11573;51.334;3.244;2023-06-24T00:12:50;17.30;99.90
22813;DHT22;11573;51.334;3.244;2023-06-24T00:15:17;17.30;99.90
22813;DHT22;11573;51.334;3.244;2023-06-24T00:17:45;17.30;99.90
22813;DHT22;11573;51.334;3.244;2023-06-24T00:20:12;17.20;99.90
22813;DHT22;11573;51.334;3.244;2023-06-24T00:22:41;17.30;99.90
22813;DHT22;11573;51.334;3.244;2023-06-24T00:25:11;17.20;99.90
22813;DHT22;11573;51.334;3.244;2023-06-24T00:27:38;17.20;99.90
22813;DHT22;11573;51.334;3.244;2023-06-24T00:30:05;17.20;99.90
22813;DHT22;11573;51.334;3.244;2023-06-24T00:32:34;17.10;99.90
22813;DHT22;11573;51.334;3.244;2023-06-24T00:35:01;17.00;99.90
22813;DHT22;11573;51.334;3.244;2023-06-24T00:37:28;17.10;99.90
22813;DHT22;11573;51.334;3.244;2023-06-24T00:39:55;17.00;99.90
22813;DHT22;11573;51.334;3.244;2023-06-24T00:42:22;17.00;99.90
22813;DHT22;11573;51.334;3.244;2023-06-24T00:44:49;17.10;99.90
22813;DHT22;11573;51.334;3.244;2023-06-24T00:47:16;17.00;99.90
22813;DHT22;11573;51.334;3.244;2023-06-24T00:49:43;17.00;99.90
22813;DHT22;11573;51.334;3.244;2023-06-24T00:52:12;17.00;99.90
22813;DHT22;11573;51.334;3.244;2023-06-24T00:54:43;17.00;99.90
22813;DHT22;11573;51.334;3.244;2023-06-24T00:57:11;16.90;99.90
22813;DHT22;11573;51.334;3.244;2023-06-24T00:59:40;16.90;99.90
22813;DHT22;11573;51.334;3.244;2023-06-24T01:02:10;16.80;99.90
22813;DHT22;11573;51.334;3.244;2023-06-24T01:04:37;16.80;99.90
22813;DHT22;11573;51.334;3.244;2023-06-24T01:07:06;16.80;99.90
22813;DHT22;11573;51.334;3.244;2023-06-24T01:09:36;16.70;99.90
22813;DHT22;11573;51.334;3.244;2023-06-24T01:12:03;16.80;99.90
22813;DHT22;11573;51.334;3.244;2023-06-24T01:14:30;16.80;99.90
22813;DHT22;11573;51.334;3.244;2023-06-24T01:17:13;16.80;99.90
22813;DHT22;11573;51.334;3.244;2023-06-24T01:19:53;16.70;99.90
22813;DHT22;11573;51.334;3.244;2023-06-24T01:36:43;16.60;99.90
22813;DHT22;11573;51.334;3.244;2023-06-24T01:39:13;16.60;99.90
22813;DHT22;11573;51.334;3.244;2023-06-24T01:41:48;16.50;99.90
22813;DHT22;11573;51.334;3.244;2023-06-24T01:44:17;16.50;99.90
22813;DHT22;11573;51.334;3.244;2023-06-24T01:46:47;16.40;99.90
22813;DHT22;11573;51.334;3.244;2023-06-24T01:49:16;16.40;99.90
22813;DHT22;11573;51.334;3.244;2023-06-24T01:51:45;16.40;99.90
22813;DHT22;11573;51.334;3.244;2023-06-24T01:54:17;16.40;99.90
22813;DHT22;11573;51.334;3.244;2023-06-24T01:56:47;16.30;99.90
22813;DHT22;11573;51.334;3.244;2023-06-24T01:59:16;16.40;99.90
22813;DHT22;11573;51.334;3.244;2023-06-24T02:01:44;16.30;99.90
22813;DHT22;11573;51.334;3.244;2023-06-24T02:04:13;16.30;99.90
22813;DHT22;11573;51.334;3.244;2023-06-24T02:06:42;16.20;99.90
22813;DHT22;11573;51.334;3.244;2023-06-24T02:09:10;16.20;99.90
22813;DHT22;11573;51.334;3.244;2023-06-24T02:11:38;16.20;99.90
22813;DHT22;11573;51.334;3.244;2023-06-24T02:14:07;16.10;99.90
22813;DHT22;11573;51.334;3.244;2023-06-24T02:16:37;16.20;99.90
22813;DHT22;11573;51.334;3.244;2023-06-24T02:19:10;16.20;99.90
22813;DHT22;11573;51.334;3.244;2023-06-24T02:21:40;16.20;99.90
22813;DHT22;11573;51.334;3.244;2023-06-24T02:24:08;16.10;99.90
22813;DHT22;11573;51.334;3.244;2023-06-24T02:26:36;16.00;99.90
22813;DHT22;11573;51.334;3.244;2023-06-24T02:29:09;16.00;99.90
22813;DHT22;11573;51.334;3.244;2023-06-24T02:31:37;16.00;99.90
22813;DHT22;11573;51.334;3.244;2023-06-24T02:34:04;16.00;99.90
22813;DHT22;11573;51.334;3.244;2023-06-24T02:36:31;16.00;99.90
22813;DHT22;11573;51.334;3.244;2023-06-24T02:38:59;16.00;99.90
22813;DHT22;11573;51.334;3.244;2023-06-24T02:41:26;15.90;99.90
22813;DHT22;11573;51.334;3.244;2023-06-24T02:43:53;15.90;99.90
22813;DHT22;11573;51.334;3.244;2023-06-24T02:46:21;15.80;99.90
22813;DHT22;11573;51.334;3.244;2023-06-24T02:48:49;15.80;99.90
22813;DHT22;11573;51.334;3.244;2023-06-24T02:51:17;15.80;99.90
22813;DHT22;11573;51.334;3.244;2023-06-24T02:53:45;15.80;99.90
22813;DHT22;11573;51.334;3.244;2023-06-24T02:56:15;15.80;99.90
22813;DHT22;11573;51.334;3.244;2023-06-24T02:58:49;15.80;99.90
22813;DHT22;11573;51.334;3.244;2023-06-24T03:01:22;15.80;99.90
22813;DHT22;11573;51.334;3.244;2023-06-24T03:03:54;15.80;99.90
22813;DHT22;11573;51.334;3.244;2023-06-24T03:06:22;15.70;99.90
22813;DHT22;11573;51.334;3.244;2023-06-24T03:08:49;15.70;99.90
22813;DHT22;11573;51.334;3.244;2023-06-24T03:11:20;15.70;99.90
22813;DHT22;11573;51.334;3.244;2023-06-24T03:13:47;15.70;99.90
22813;DHT22;11573;51.334;3.244;2023-06-24T03:16:20;15.70;99.90
22813;DHT22;11573;51.334;3.244;2023-06-24T03:18:53;15.70;99.90
22813;DHT22;11573;51.334;3.244;2023-06-24T03:21:21;15.70;99.90
22813;DHT22;11573;51.334;3.244;2023-06-24T03:23:49;15.70;99.90
22813;DHT22;11573;51.334;3.244;2023-06-24T03:26:17;15.70;99.90
22813;DHT22;11573;51.334;3.244;2023-06-24T03:28:44;15.70;99.90
22813;DHT22;11573;51.334;3.244;2023-06-24T03:31:15;15.70;99.90
22813;DHT22;11573;51.334;3.244;2023-06-24T03:33:42;15.70;99.90
22813;DHT22;11573;51.334;3.244;2023-06-24T03:36:15;15.70;99.90
22813;DHT22;11573;51.334;3.244;2023-06-24T03:38:43;15.70;99.90
22813;DHT22;11573;51.334;3.244;2023-06-24T03:41:10;15.70;99.90
22813;DHT22;11573;51.334;3.244;2023-06-24T03:43:37;15.70;99.90
22813;DHT22;11573;51.334;3.244;2023-06-24T03:46:04;15.60;99.90
22813;DHT22;11573;51.334;3.244;2023-06-24T03:48:31;15.70;99.90
22813;DHT22;11573;51.334;3.244;2023-06-24T03:50:59;15.70;99.90
22813;DHT22;11573;51.334;3.244;2023-06-24T03:53:28;15.70;99.90
22813;DHT22;11573;51.334;3.244;2023-06-24T03:55:55;15.80;99.90
22813;DHT22;11573;51.334;3.244;2023-06-24T03:58:22;15.90;99.90
22813;DHT22;11573;51.334;3.244;2023-06-24T04:00:49;15.90;99.90
22813;DHT22;11573;51.334;3.244;2023-06-24T04:03:16;15.90;99.90
22813;DHT22;11573;51.334;3.244;2023-06-24T04:05:46;15.80;99.90
22813;DHT22;11573;51.334;3.244;2023-06-24T04:08:18;16.00;99.90
22813;DHT22;11573;51.334;3.244;2023-06-24T04:10:45;16.10;99.90
22813;DHT22;11573;51.334;3.244;2023-06-24T04:13:12;16.10;99.90
22813;DHT22;11573;51.334;3.244;2023-06-24T04:15:39;16.30;99.90
22813;DHT22;11573;51.334;3.244;2023-06-24T04:18:06;16.40;99.90
22813;DHT22;11573;51.334;3.244;2023-06-24T04:20:33;16.50;99.90
22813;DHT22;11573;51.334;3.244;2023-06-24T04:23:04;16.80;99.90
22813;DHT22;11573;51.334;3.244;2023-06-24T04:25:32;17.40;99.90
22813;DHT22;11573;51.334;3.244;2023-06-24T04:28:00;18.30;99.90
22813;DHT22;11573;51.334;3.244;2023-06-24T04:30:27;19.20;99.90
22813;DHT22;11573;51.334;3.244;2023-06-24T04:32:54;20.00;99.90
22813;DHT22;11573;51.334;3.244;2023-06-24T04:35:21;20.90;99.90
22813;DHT22;11573;51.334;3.244;2023-06-24T04:37:49;21.30;99.90
22813;DHT22;11573;51.334;3.244;2023-06-24T04:40:19;22.20;99.90
22813;DHT22;11573;51.334;3.244;2023-06-24T04:42:46;22.60;99.90
22813;DHT22;11573;51.334;3.244;2023-06-24T04:45:13;22.40;99.90
22813;DHT22;11573;51.334;3.244;2023-06-24T04:47:40;22.80;99.90
22813;DHT22;11573;51.334;3.244;2023-06-24T04:50:07;22.90;99.90
22813;DHT22;11573;51.334;3.244;2023-06-24T04:52:39;22.50;99.90
22813;DHT22;11573;51.334;3.244;2023-06-24T04:55:06;22.50;99.90
22813;DHT22;11573;51.334;3.244;2023-06-24T04:57:33;22.50;99.90
22813;DHT22;11573;51.334;3.244;2023-06-24T05:00:01;22.70;99.90
22813;DHT22;11573;51.334;3.244;2023-06-24T05:02:28;23.10;99.90
22813;DHT22;11573;51.334;3.244;2023-06-24T05:04:55;22.70;99.90
22813;DHT22;11573;51.334;3.244;2023-06-24T05:07:22;22.70;99.90
22813;DHT22;11573;51.334;3.244;2023-06-24T05:09:49;22.70;99.90
22813;DHT22;11573;51.334;3.244;2023-06-24T05:12:18;23.00;99.90
22813;DHT22;11573;51.334;3.244;2023-06-24T05:14:49;22.70;99.90
22813;DHT22;11573;51.334;3.244;2023-06-24T05:17:17;23.60;99.90
22813;DHT22;11573;51.334;3.244;2023-06-24T05:19:43;24.00;99.90
22813;DHT22;11573;51.334;3.244;2023-06-24T05:22:10;24.30;99.90
22813;DHT22;11573;51.334;3.244;2023-06-24T05:24:37;24.70;99.90
22813;DHT22;11573;51.334;3.244;2023-06-24T05:27:06;24.40;99.90
22813;DHT22;11573;51.334;3.244;2023-06-24T05:29:33;23.50;99.90
22813;DHT22;11573;51.334;3.244;2023-06-24T05:32:01;23.50;99.90
22813;DHT22;11573;51.334;3.244;2023-06-24T05:34:31;22.70;99.90
22813;DHT22;11573;51.334;3.244;2023-06-24T05:36:58;23.10;99.90
22813;DHT22;11573;51.334;3.244;2023-06-24T05:39:25;23.60;99.90
22813;DHT22;11573;51.334;3.244;2023-06-24T05:41:52;23.60;99.90
22813;DHT22;11573;51.334;3.244;2023-06-24T05:44:20;24.00;99.90
22813;DHT22;11573;51.334;3.244;2023-06-24T05:46:47;24.10;99.90
22813;DHT22;11573;51.334;3.244;2023-06-24T05:49:14;24.20;99.90
22813;DHT22;11573;51.334;3.244;2023-06-24T05:51:41;24.10;99.90
22813;DHT22;11573;51.334;3.244;2023-06-24T05:54:08;24.40;99.90
22813;DHT22;11573;51.334;3.244;2023-06-24T05:56:35;24.40;99.90
22813;DHT22;11573;51.334;3.244;2023-06-24T05:59:06;24.70;99.90
22813;DHT22;11573;51.334;3.244;2023-06-24T06:01:33;24.40;99.90
22813;DHT22;11573;51.334;3.244;2023-06-24T06:04:00;24.40;99.90
22813;DHT22;11573;51.334;3.244;2023-06-24T06:06:27;23.30;99.90
22813;DHT22;11573;51.334;3.244;2023-06-24T06:08:54;22.90;99.90
22813;DHT22;11573;51.334;3.244;2023-06-24T06:11:21;22.60;99.90
22813;DHT22;11573;51.334;3.244;2023-06-24T06:13:48;22.00;99.90
22813;DHT22;11573;51.334;3.244;2023-06-24T06:16:15;21.30;99.90
22813;DHT22;11573;51.334;3.244;2023-06-24T06:18:42;21.20;99.90
22813;DHT22;11573;51.334;3.244;2023-06-24T06:21:09;21.40;99.90
22813;DHT22;11573;51.334;3.244;2023-06-24T06:23:36;21.40;99.90
22813;DHT22;11573;51.334;3.244;2023-06-24T06:26:03;21.30;99.90
22813;DHT22;11573;51.334;3.244;2023-06-24T06:28:30;21.50;99.90
22813;DHT22;11573;51.334;3.244;2023-06-24T06:30:57;21.40;99.90
22813;DHT22;11573;51.334;3.244;2023-06-24T06:33:24;21.40;99.90
22813;DHT22;11573;51.334;3.244;2023-06-24T06:35:51;21.50;99.90
22813;DHT22;11573;51.334;3.244;2023-06-24T06:38:18;21.50;99.90
22813;DHT22;11573;51.334;3.244;2023-06-24T06:40:45;21.50;99.90
22813;DHT22;11573;51.334;3.244;2023-06-24T06:43:11;21.70;99.90
22813;DHT22;11573;51.334;3.244;2023-06-24T06:45:38;21.70;99.90
22813;DHT22;11573;51.334;3.244;2023-06-24T06:48:07;22.00;99.90
22813;DHT22;11573;51.334;3.244;2023-06-24T06:50:35;21.80;99.90
22813;DHT22;11573;51.334;3.244;2023-06-24T06:53:02;21.80;99.90
22813;DHT22;11573;51.334;3.244;2023-06-24T06:55:29;21.60;99.90
22813;DHT22;11573;51.334;3.244;2023-06-24T06:57:56;21.90;99.90
22813;DHT22;11573;51.334;3.244;2023-06-24T07:00:23;21.90;99.90
22813;DHT22;11573;51.334;3.244;2023-06-24T07:02:50;22.00;99.90
22813;DHT22;11573;51.334;3.244;2023-06-24T07:05:17;22.10;99.90
22813;DHT22;11573;51.334;3.244;2023-06-24T07:07:44;22.30;99.90
22813;DHT22;11573;51.334;3.244;2023-06-24T07:10:12;22.30;99.90
22813;DHT22;11573;51.334;3.244;2023-06-24T07:12:39;22.30;99.90
22813;DHT22;11573;51.334;3.244;2023-06-24T07:15:07;22.20;99.90
22813;DHT22;11573;51.334;3.244;2023-06-24T07:17:38;22.00;99.90
22813;DHT22;11573;51.334;3.244;2023-06-24T07:20:05;21.60;99.90
22813;DHT22;11573;51.334;3.244;2023-06-24T07:22:33;21.60;99.90
22813;DHT22;11573;51.334;3.244;2023-06-24T07:25:00;21.50;99.90
22813;DHT22;11573;51.334;3.244;2023-06-24T07:27:28;21.60;99.90
22813;DHT22;11573;51.334;3.244;2023-06-24T07:29:55;21.90;99.90
22813;DHT22;11573;51.334;3.244;2023-06-24T07:32:22;21.80;99.90
22813;DHT22;11573;51.334;3.244;2023-06-24T07:34:49;21.90;99.90
22813;DHT22;11573;51.334;3.244;2023-06-24T07:37:16;22.20;99.90
22813;DHT22;11573;51.334;3.244;2023-06-24T07:39:51;22.10;99.90
22813;DHT22;11573;51.334;3.244;2023-06-24T07:42:18;22.10;99.90
22813;DHT22;11573;51.334;3.244;2023-06-24T07:44:48;22.30;99.90
22813;DHT22;11573;51.334;3.244;2023-06-24T07:47:16;22.60;99.90
22813;DHT22;11573;51.334;3.244;2023-06-24T07:49:44;22.90;99.90
22813;DHT22;11573;51.334;3.244;2023-06-24T07:52:10;22.90;99.90
22813;DHT22;11573;51.334;3.244;2023-06-24T07:54:38;23.10;99.90
22813;DHT22;11573;51.334;3.244;2023-06-24T07:57:04;23.40;99.90
22813;DHT22;11573;51.334;3.244;2023-06-24T07:59:31;23.20;99.90
22813;DHT22;11573;51.334;3.244;2023-06-24T08:01:58;23.00;99.90
22813;DHT22;11573;51.334;3.244;2023-06-24T08:04:25;22.90;99.90
22813;DHT22;11573;51.334;3.244;2023-06-24T08:06:53;22.80;99.90
22813;DHT22;11573;51.334;3.244;2023-06-24T08:09:20;23.00;99.90
22813;DHT22;11573;51.334;3.244;2023-06-24T08:11:47;23.50;99.90
22813;DHT22;11573;51.334;3.244;2023-06-24T08:14:14;23.50;99.90
22813;DHT22;11573;51.334;3.244;2023-06-24T08:16:41;23.30;99.90
22813;DHT22;11573;51.334;3.244;2023-06-24T08:19:08;23.20;99.90
22813;DHT22;11573;51.334;3.244;2023-06-24T08:21:35;23.30;99.90
22813;DHT22;11573;51.334;3.244;2023-06-24T08:24:05;23.30;99.90
22813;DHT22;11573;51.334;3.244;2023-06-24T08:26:32;23.00;99.90
22813;DHT22;11573;51.334;3.244;2023-06-24T08:28:59;22.90;99.90
22813;DHT22;11573;51.334;3.244;2023-06-24T08:31:30;22.90;99.90
22813;DHT22;11573;51.334;3.244;2023-06-24T08:33:59;22.80;99.90
22813;DHT22;11573;51.334;3.244;2023-06-24T08:36:28;23.00;99.90
22813;DHT22;11573;51.334;3.244;2023-06-24T08:38:58;22.70;99.90
22813;DHT22;11573;51.334;3.244;2023-06-24T08:41:25;22.80;99.90
22813;DHT22;11573;51.334;3.244;2023-06-24T08:43:53;23.00;99.90
22813;DHT22;11573;51.334;3.244;2023-06-24T08:46:21;23.50;99.90
22813;DHT22;11573;51.334;3.244;2023-06-24T08:48:59;23.80;99.90
22813;DHT22;11573;51.334;3.244;2023-06-24T08:51:29;23.90;99.90
22813;DHT22;11573;51.334;3.244;2023-06-24T08:53:58;24.00;99.90
22813;DHT22;11573;51.334;3.244;2023-06-24T08:56:25;23.70;99.90
22813;DHT22;11573;51.334;3.244;2023-06-24T08:58:53;23.40;99.90
22813;DHT22;11573;51.334;3.244;2023-06-24T09:01:20;23.20;99.90
22813;DHT22;11573;51.334;3.244;2023-06-24T09:03:50;22.80;99.90
22813;DHT22;11573;51.334;3.244;2023-06-24T09:06:17;22.70;99.90
22813;DHT22;11573;51.334;3.244;2023-06-24T09:08:54;22.40;99.90
22813;DHT22;11573;51.334;3.244;2023-06-24T09:11:25;22.10;99.90
22813;DHT22;11573;51.334;3.244;2023-06-24T09:14:00;22.10;99.90
22813;DHT22;11573;51.334;3.244;2023-06-24T09:16:29;22.30;99.90
22813;DHT22;11573;51.334;3.244;2023-06-24T09:18:56;22.30;99.90
22813;DHT22;11573;51.334;3.244;2023-06-24T09:21:27;22.20;99.90
22813;DHT22;11573;51.334;3.244;2023-06-24T09:23:58;22.10;99.90
22813;DHT22;11573;51.334;3.244;2023-06-24T09:26:26;22.20;99.90
22813;DHT22;11573;51.334;3.244;2023-06-24T09:28:53;22.10;99.90
22813;DHT22;11573;51.334;3.244;2023-06-24T09:31:23;22.00;99.90
22813;DHT22;11573;51.334;3.244;2023-06-24T09:33:51;22.00;99.90
22813;DHT22;11573;51.334;3.244;2023-06-24T09:36:18;21.90;99.90
22813;DHT22;11573;51.334;3.244;2023-06-24T09:38:45;22.20;99.90
22813;DHT22;11573;51.334;3.244;2023-06-24T09:41:14;22.50;99.90
22813;DHT22;11573;51.334;3.244;2023-06-24T09:43:42;22.80;99.90
22813;DHT22;11573;51.334;3.244;2023-06-24T09:46:12;22.80;99.90
22813;DHT22;11573;51.334;3.244;2023-06-24T09:48:40;22.70;99.90
22813;DHT22;11573;51.334;3.244;2023-06-24T09:51:08;22.50;99.90
22813;DHT22;11573;51.334;3.244;2023-06-24T09:53:35;22.50;99.90
22813;DHT22;11573;51.334;3.244;2023-06-24T09:56:04;22.30;99.90
22813;DHT22;11573;51.334;3.244;2023-06-24T09:58:36;22.50;99.90
22813;DHT22;11573;51.334;3.244;2023-06-24T10:01:05;22.70;99.90
22813;DHT22;11573;51.334;3.244;2023-06-24T10:03:34;22.50;99.90
22813;DHT22;11573;51.334;3.244;2023-06-24T10:06:02;22.20;99.90
22813;DHT22;11573;51.334;3.244;2023-06-24T10:08:30;21.80;99.90
22813;DHT22;11573;51.334;3.244;2023-06-24T10:11:01;22.00;99.90
22813;DHT22;11573;51.334;3.244;2023-06-24T10:13:29;22.30;99.90
22813;DHT22;11573;51.334;3.244;2023-06-24T10:15:56;22.50;99.90
22813;DHT22;11573;51.334;3.244;2023-06-24T10:18:38;22.70;99.90
22813;DHT22;11573;51.334;3.244;2023-06-24T10:21:07;22.70;99.90
22813;DHT22;11573;51.334;3.244;2023-06-24T10:23:41;22.60;99.90
22813;DHT22;11573;51.334;3.244;2023-06-24T10:26:10;22.40;99.90
22813;DHT22;11573;51.334;3.244;2023-06-24T10:39:58;22.40;99.90
22813;DHT22;11573;51.334;3.244;2023-06-24T10:42:33;22.50;99.90
22813;DHT22;11573;51.334;3.244;2023-06-24T10:47:37;22.40;99.90
22813;DHT22;11573;51.334;3.244;2023-06-24T10:50:06;22.10;99.90
22813;DHT22;11573;51.334;3.244;2023-06-24T10:52:38;21.90;99.90
22813;DHT22;11573;51.334;3.244;2023-06-24T10:55:06;21.80;99.90
22813;DHT22;11573;51.334;3.244;2023-06-24T10:57:34;22.10;99.90
22813;DHT22;11573;51.334;3.244;2023-06-24T11:00:02;22.40;99.90
22813;DHT22;11573;51.334;3.244;2023-06-24T11:02:30;22.40;99.90
22813;DHT22;11573;51.334;3.244;2023-06-24T11:04:59;22.10;99.90
22813;DHT22;11573;51.334;3.244;2023-06-24T11:07:28;22.30;99.90
22813;DHT22;11573;51.334;3.244;2023-06-24T11:10:00;22.50;99.90
22813;DHT22;11573;51.334;3.244;2023-06-24T11:12:30;22.30;99.90
22813;DHT22;11573;51.334;3.244;2023-06-24T11:14:58;22.70;99.90
22813;DHT22;11573;51.334;3.244;2023-06-24T11:17:26;22.60;99.90
22813;DHT22;11573;51.334;3.244;2023-06-24T11:19:54;22.70;99.90
22813;DHT22;11573;51.334;3.244;2023-06-24T11:22:22;22.50;99.90
22813;DHT22;11573;51.334;3.244;2023-06-24T11:24:49;22.50;99.90
22813;DHT22;11573;51.334;3.244;2023-06-24T11:27:23;22.40;99.90
22813;DHT22;11573;51.334;3.244;2023-06-24T11:29:52;22.40;99.90
22813;DHT22;11573;51.334;3.244;2023-06-24T11:32:19;22.60;99.90
22813;DHT22;11573;51.334;3.244;2023-06-24T11:34:47;22.60;99.90
22813;DHT22;11573;51.334;3.244;2023-06-24T11:37:16;22.50;99.90
22813;DHT22;11573;51.334;3.244;2023-06-24T11:39:44;22.50;99.90
22813;DHT22;11573;51.334;3.244;2023-06-24T11:42:11;22.40;99.90
22813;DHT22;11573;51.334;3.244;2023-06-24T11:44:42;22.50;99.90
22813;DHT22;11573;51.334;3.244;2023-06-24T11:47:11;22.60;99.90
22813;DHT22;11573;51.334;3.244;2023-06-24T11:49:52;23.00;99.90
22813;DHT22;11573;51.334;3.244;2023-06-24T11:52:32;23.10;99.90
22813;DHT22;11573;51.334;3.244;2023-06-24T11:54:58;22.80;99.90
22813;DHT22;11573;51.334;3.244;2023-06-24T11:57:55;22.80;99.90
22813;DHT22;11573;51.334;3.244;2023-06-24T12:00:26;22.60;99.90
22813;DHT22;11573;51.334;3.244;2023-06-24T12:02:58;22.50;99.90
22813;DHT22;11573;51.334;3.244;2023-06-24T12:05:31;22.40;99.90
22813;DHT22;11573;51.334;3.244;2023-06-24T12:08:06;22.60;99.90
22813;DHT22;11573;51.334;3.244;2023-06-24T12:10:34;23.00;99.90
22813;DHT22;11573;51.334;3.244;2023-06-24T12:13:03;23.40;99.90
22813;DHT22;11573;51.334;3.244;2023-06-24T12:15:32;23.70;99.90
22813;DHT22;11573;51.334;3.244;2023-06-24T12:18:00;23.80;99.90
22813;DHT22;11573;51.334;3.244;2023-06-24T12:20:30;23.60;99.90
22813;DHT22;11573;51.334;3.244;2023-06-24T12:23:00;23.80;99.90
22813;DHT22;11573;51.334;3.244;2023-06-24T12:25:27;23.70;99.90
22813;DHT22;11573;51.334;3.244;2023-06-24T12:27:54;23.90;99.90
22813;DHT22;11573;51.334;3.244;2023-06-24T12:30:22;23.80;99.90
22813;DHT22;11573;51.334;3.244;2023-06-24T12:32:50;23.80;99.90
22813;DHT22;11573;51.334;3.244;2023-06-24T12:35:18;24.00;99.90
22813;DHT22;11573;51.334;3.244;2023-06-24T12:37:45;24.10;99.90
22813;DHT22;11573;51.334;3.244;2023-06-24T12:40:12;24.10;99.90
22813;DHT22;11573;51.334;3.244;2023-06-24T12:42:39;24.00;99.90
22813;DHT22;11573;51.334;3.244;2023-06-24T12:45:07;23.70;99.90
22813;DHT22;11573;51.334;3.244;2023-06-24T12:47:34;23.30;99.90
22813;DHT22;11573;51.334;3.244;2023-06-24T12:50:01;23.20;99.90
22813;DHT22;11573;51.334;3.244;2023-06-24T12:52:28;23.30;99.90
22813;DHT22;11573;51.334;3.244;2023-06-24T12:54:55;23.30;99.90
22813;DHT22;11573;51.334;3.244;2023-06-24T12:57:22;23.50;99.90
22813;DHT22;11573;51.334;3.244;2023-06-24T12:59:49;23.50;99.90
22813;DHT22;11573;51.334;3.244;2023-06-24T13:02:16;23.50;99.90
22813;DHT22;11573;51.334;3.244;2023-06-24T13:04:43;23.60;99.90
22813;DHT22;11573;51.334;3.244;2023-06-24T13:07:10;23.80;99.90
22813;DHT22;11573;51.334;3.244;2023-06-24T13:09:36;23.80;99.90
22813;DHT22;11573;51.334;3.244;2023-06-24T13:12:04;24.00;99.90
22813;DHT22;11573;51.334;3.244;2023-06-24T13:14:31;24.10;99.90
22813;DHT22;11573;51.334;3.244;2023-06-24T13:16:58;24.10;99.90
22813;DHT22;11573;51.334;3.244;2023-06-24T13:19:25;24.20;99.90
22813;DHT22;11573;51.334;3.244;2023-06-24T13:21:52;24.00;99.90
22813;DHT22;11573;51.334;3.244;2023-06-24T13:24:19;24.00;99.90
22813;DHT22;11573;51.334;3.244;2023-06-24T13:26:46;24.00;99.90
22813;DHT22;11573;51.334;3.244;2023-06-24T13:29:13;24.40;99.90
22813;DHT22;11573;51.334;3.244;2023-06-24T13:31:40;24.30;99.90
22813;DHT22;11573;51.334;3.244;2023-06-24T13:34:07;24.10;99.90
22813;DHT22;11573;51.334;3.244;2023-06-24T13:36:36;24.10;99.90
22813;DHT22;11573;51.334;3.244;2023-06-24T13:39:05;24.30;99.90
22813;DHT22;11573;51.334;3.244;2023-06-24T13:41:32;24.30;99.90
22813;DHT22;11573;51.334;3.244;2023-06-24T13:44:04;24.00;99.90
22813;DHT22;11573;51.334;3.244;2023-06-24T13:46:32;24.20;99.90
22813;DHT22;11573;51.334;3.244;2023-06-24T13:48:59;24.30;99.90
22813;DHT22;11573;51.334;3.244;2023-06-24T13:51:31;24.00;99.90
22813;DHT22;11573;51.334;3.244;2023-06-24T13:53:58;23.80;99.90
22813;DHT22;11573;51.334;3.244;2023-06-24T13:56:26;23.60;99.90
22813;DHT22;11573;51.334;3.244;2023-06-24T13:58:53;23.90;99.90
22813;DHT22;11573;51.334;3.244;2023-06-24T14:01:21;24.00;99.90
22813;DHT22;11573;51.334;3.244;2023-06-24T14:03:50;24.10;99.90
22813;DHT22;11573;51.334;3.244;2023-06-24T14:06:20;24.20;99.90
22813;DHT22;11573;51.334;3.244;2023-06-24T14:08:48;24.50;99.90
22813;DHT22;11573;51.334;3.244;2023-06-24T14:11:15;24.40;99.90
22813;DHT22;11573;51.334;3.244;2023-06-24T14:13:43;24.60;99.90
22813;DHT22;11573;51.334;3.244;2023-06-24T14:16:10;24.60;99.90
22813;DHT22;11573;51.334;3.244;2023-06-24T14:18:38;24.20;99.90
22813;DHT22;11573;51.334;3.244;2023-06-24T14:21:06;24.20;99.90
22813;DHT22;11573;51.334;3.244;2023-06-24T14:23:33;24.20;99.90
22813;DHT22;11573;51.334;3.244;2023-06-24T14:26:01;24.40;99.90
22813;DHT22;11573;51.334;3.244;2023-06-24T14:28:28;24.80;99.90
22813;DHT22;11573;51.334;3.244;2023-06-24T14:30:55;24.90;99.90
22813;DHT22;11573;51.334;3.244;2023-06-24T14:33:23;24.70;99.90
22813;DHT22;11573;51.334;3.244;2023-06-24T14:35:50;24.90;99.90
22813;DHT22;11573;51.334;3.244;2023-06-24T14:38:18;24.90;99.90
22813;DHT22;11573;51.334;3.244;2023-06-24T14:40:45;24.70;99.90
22813;DHT22;11573;51.334;3.244;2023-06-24T14:43:12;24.80;99.90
22813;DHT22;11573;51.334;3.244;2023-06-24T14:45:39;25.00;99.90
22813;DHT22;11573;51.334;3.244;2023-06-24T14:48:06;24.90;99.90
22813;DHT22;11573;51.334;3.244;2023-06-24T14:50:33;24.80;99.90
22813;DHT22;11573;51.334;3.244;2023-06-24T14:53:01;24.50;99.90
22813;DHT22;11573;51.334;3.244;2023-06-24T14:55:28;24.60;99.90
22813;DHT22;11573;51.334;3.244;2023-06-24T14:57:56;24.30;99.90
22813;DHT22;11573;51.334;3.244;2023-06-24T15:00:23;24.50;99.90
22813;DHT22;11573;51.334;3.244;2023-06-24T15:02:49;24.60;99.90
22813;DHT22;11573;51.334;3.244;2023-06-24T15:05:17;24.50;99.90
22813;DHT22;11573;51.334;3.244;2023-06-24T15:07:44;24.50;99.90
22813;DHT22;11573;51.334;3.244;2023-06-24T15:10:11;24.70;99.90
22813;DHT22;11573;51.334;3.244;2023-06-24T15:12:37;24.80;99.90
22813;DHT22;11573;51.334;3.244;2023-06-24T15:15:06;24.60;99.90
22813;DHT22;11573;51.334;3.244;2023-06-24T15:17:33;24.50;99.90
22813;DHT22;11573;51.334;3.244;2023-06-24T15:20:02;24.40;99.90
22813;DHT22;11573;51.334;3.244;2023-06-24T15:22:29;24.00;99.90
22813;DHT22;11573;51.334;3.244;2023-06-24T15:24:56;23.90;99.90
22813;DHT22;11573;51.334;3.244;2023-06-24T15:27:23;23.90;99.90
22813;DHT22;11573;51.334;3.244;2023-06-24T15:29:50;23.90;99.90
22813;DHT22;11573;51.334;3.244;2023-06-24T15:32:17;23.50;99.90
22813;DHT22;11573;51.334;3.244;2023-06-24T15:34:44;23.50;99.90
22813;DHT22;11573;51.334;3.244;2023-06-24T15:37:11;23.40;99.90
22813;DHT22;11573;51.334;3.244;2023-06-24T15:39:41;23.40;99.90
22813;DHT22;11573;51.334;3.244;2023-06-24T15:42:08;23.30;99.90
22813;DHT22;11573;51.334;3.244;2023-06-24T15:44:37;23.50;99.90
22813;DHT22;11573;51.334;3.244;2023-06-24T15:47:07;23.40;99.90
22813;DHT22;11573;51.334;3.244;2023-06-24T15:49:34;23.50;99.90
22813;DHT22;11573;51.334;3.244;2023-06-24T15:52:01;23.40;99.90
22813;DHT22;11573;51.334;3.244;2023-06-24T15:54:28;23.20;99.90
22813;DHT22;11573;51.334;3.244;2023-06-24T15:56:55;23.20;99.90
22813;DHT22;11573;51.334;3.244;2023-06-24T15:59:22;23.20;99.90
22813;DHT22;11573;51.334;3.244;2023-06-24T16:01:49;23.40;99.90
22813;DHT22;11573;51.334;3.244;2023-06-24T16:04:16;23.70;99.90